This is the latest recevied weather packets stored in our database for station/object M0XDC. If no packets are shown the sender has not sent any weather packets the latest 10 day(s).
| Time | Temp. | Humidity | Pressure | Rain* | Wind** | Luminosity | Snow |
|---|---|---|---|---|---|---|---|
| 1777655257 | 22.22° C | 53% | 1016.5 hPa | 0 mm | - | - | - |
| 1777653457 | 23.33° C | 50% | 1016.4 hPa | 0 mm | - | - | - |
| 1777651657 | 23.89° C | 45% | 1016.8 hPa | 0 mm | - | - | - |
| 1777649858 | 23.89° C | 41% | 1016.8 hPa | 0 mm | - | - | - |
| 1777648057 | 23.33° C | 39% | 1017 hPa | 0 mm | - | - | - |
| 1777646258 | 23.89° C | 36% | 1017.3 hPa | 0 mm | - | - | - |
| 1777644458 | 22.78° C | 37% | 1017.7 hPa | 0 mm | - | - | - |
| 1777642657 | 23.33° C | 36% | 1017.8 hPa | 0 mm | - | - | - |
| 1777640857 | 23.33° C | 35% | 1017.8 hPa | 0 mm | - | - | - |
| 1777639057 | 22.78° C | 35% | 1017.9 hPa | 0 mm | - | - | - |
| 1777637257 | 22.22° C | 32% | 1018.3 hPa | 0 mm | - | - | - |
| 1777635457 | 22.22° C | 34% | 1018.4 hPa | 0 mm | - | - | - |
| 1777633657 | 21.67° C | 33% | 1018.6 hPa | 0 mm | - | - | - |
| 1777631857 | 20° C | 37% | 1018.8 hPa | 0 mm | - | - | - |
| 1777630057 | 19.44° C | 37% | 1019.1 hPa | 0 mm | - | - | - |
| 1777628257 | 18.89° C | 38% | 1019.1 hPa | 0 mm | - | - | - |
| 1777626458 | 17.78° C | 39% | 1019.3 hPa | 0 mm | - | - | - |
| 1777625024 | 17.22° C | 38% | 1019.2 hPa | 0 mm | - | - | - |
| 1777624657 | 17.22° C | 38% | 1019.2 hPa | 0 mm | - | - | - |
| 1777622857 | 16.67° C | 45% | 1019.5 hPa | 0 mm | - | - | - |
| 1777621058 | 15° C | 48% | 1019.2 hPa | 0 mm | - | - | - |
| 1777619257 | 13.89° C | 54% | 1019 hPa | 0 mm | - | - | - |
| 1777617457 | 12.78° C | 56% | 1018.9 hPa | 0 mm | - | - | - |
| 1777615657 | 11.67° C | 59% | 1019.1 hPa | 0 mm | - | - | - |
| 1777614275 | 10.56° C | 63% | 1018.9 hPa | 0 mm | - | - | - |
* Rain latest hour (hover to see other rain measurements)
** Current wind speed in m/s (hover to see current wind gust speed)